createdAt,value
2019-04-28T00:05:02.232Z,10.28
2019-04-28T00:07:32.225Z,10.24
2019-04-28T00:10:01.167Z,10.26
2019-04-28T00:12:31.118Z,10.34
2019-04-28T00:14:59.707Z,10.38
2019-04-28T00:17:28.681Z,10.34
2019-04-28T00:20:01.355Z,10.24
2019-04-28T00:22:34.221Z,10.23
2019-04-28T00:25:04.477Z,10.07
2019-04-28T00:27:33.104Z,9.98
2019-04-28T00:30:02.178Z,9.88
2019-04-28T00:32:32.545Z,9.73
2019-04-28T00:35:02.320Z,9.72
2019-04-28T00:37:32.214Z,9.66
2019-04-28T00:40:01.082Z,9.58
2019-04-28T00:42:31.460Z,9.52
2019-04-28T00:45:01.651Z,9.51
2019-04-28T00:47:31.147Z,9.39
2019-04-28T00:50:02.117Z,9.51
2019-04-28T00:52:31.973Z,9.45
2019-04-28T00:55:01.157Z,9.51
2019-04-28T00:57:30.950Z,9.55
2019-04-28T01:00:02.040Z,9.60
2019-04-28T01:02:31.875Z,9.63
2019-04-28T01:05:01.482Z,9.57
2019-04-28T01:07:31.294Z,9.63
2019-04-28T01:10:01.385Z,9.68
2019-04-28T01:12:31.126Z,9.62
2019-04-28T01:15:02.626Z,9.46
2019-04-28T01:17:39.659Z,9.48
2019-04-28T01:20:10.079Z,9.54
2019-04-28T01:22:40.134Z,9.47
2019-04-28T01:25:10.521Z,9.39
2019-04-28T01:27:40.982Z,9.35
2019-04-28T01:30:11.509Z,9.42
2019-04-28T01:32:49.743Z,9.37
2019-04-28T01:35:20.825Z,9.46
2019-04-28T01:37:50.509Z,9.54
2019-04-28T01:40:20.497Z,9.59
2019-04-28T01:42:49.947Z,9.64
2019-04-28T01:45:20.441Z,9.67
2019-04-28T01:47:50.376Z,9.61
2019-04-28T01:50:20.430Z,9.75
2019-04-28T01:52:49.665Z,9.83
2019-04-28T01:55:20.075Z,10.00
2019-04-28T01:57:49.820Z,10.03
2019-04-28T02:00:25.027Z,10.11
2019-04-28T02:02:50.561Z,10.10
2019-04-28T02:05:19.788Z,10.12
2019-04-28T02:07:50.551Z,10.19
2019-04-28T02:10:21.523Z,10.00
2019-04-28T02:12:50.314Z,9.88
2019-04-28T02:15:20.197Z,9.90
2019-04-28T02:17:51.362Z,9.94
2019-04-28T02:20:20.580Z,10.00
2019-04-28T02:22:53.282Z,9.91
2019-04-28T02:25:21.832Z,9.82
2019-04-28T02:27:50.409Z,9.77
2019-04-28T02:30:20.910Z,9.74
2019-04-28T02:32:51.845Z,9.59
2019-04-28T02:35:21.383Z,9.68
2019-04-28T02:37:50.663Z,9.59
2019-04-28T02:40:20.643Z,9.54
2019-04-28T02:42:51.967Z,9.53
2019-04-28T02:45:21.766Z,9.32
2019-04-28T02:47:52.471Z,9.22
2019-04-28T02:50:33.081Z,9.26
2019-04-28T02:53:03.529Z,9.14
2019-04-28T02:55:32.973Z,9.18
2019-04-28T02:58:01.811Z,9.27
2019-04-28T03:00:31.668Z,9.12
2019-04-28T03:03:01.575Z,9.11
2019-04-28T03:05:33.132Z,9.09
2019-04-28T03:08:01.241Z,9.03
2019-04-28T03:10:31.040Z,9.05
2019-04-28T03:13:01.200Z,9.09
2019-04-28T03:15:30.378Z,9.04
2019-04-28T03:18:01.822Z,8.89
2019-04-28T03:20:30.590Z,8.94
2019-04-28T03:23:00.999Z,8.86
2019-04-28T03:25:33.397Z,8.91
2019-04-28T03:28:12.212Z,8.83
2019-04-28T03:30:45.751Z,8.83
2019-04-28T03:33:18.883Z,8.82
2019-04-28T03:35:46.653Z,8.79
2019-04-28T03:38:15.702Z,8.85
2019-04-28T03:40:44.398Z,8.83
2019-04-28T03:43:14.356Z,8.77
2019-04-28T03:45:53.931Z,8.75
2019-04-28T03:48:22.533Z,8.70
2019-04-28T03:50:51.509Z,8.62
2019-04-28T03:53:20.770Z,8.71
2019-04-28T03:55:51.295Z,8.68
2019-04-28T03:58:23.661Z,8.68
2019-04-28T04:00:50.753Z,8.71
2019-04-28T04:03:21.135Z,8.74
2019-04-28T04:05:50.897Z,8.69
2019-04-28T04:08:20.920Z,8.75
2019-04-28T04:10:51.337Z,8.83
2019-04-28T04:13:33.311Z,8.85
2019-04-28T04:16:21.680Z,8.59
2019-04-28T04:18:54.798Z,8.74
2019-04-28T04:21:23.527Z,8.49
2019-04-28T04:23:52.137Z,8.43
2019-04-28T04:26:21.500Z,8.53
2019-04-28T04:28:51.435Z,8.59
2019-04-28T04:31:20.347Z,8.48
2019-04-28T04:33:50.534Z,8.55
2019-04-28T04:36:21.153Z,8.57
2019-04-28T04:38:51.208Z,8.62
2019-04-28T04:41:20.262Z,8.74
2019-04-28T04:43:51.344Z,8.61
2019-04-28T04:46:22.077Z,8.66
2019-04-28T04:48:51.417Z,8.57
2019-04-28T04:51:21.233Z,8.74
2019-04-28T04:53:51.332Z,8.82
2019-04-28T04:56:21.286Z,8.59
2019-04-28T04:58:50.686Z,8.70
2019-04-28T05:01:40.671Z,8.75
2019-04-28T05:04:20.153Z,8.77
2019-04-28T05:06:49.702Z,8.78
2019-04-28T05:09:19.648Z,8.72
2019-04-28T05:11:49.934Z,8.76
2019-04-28T05:14:19.820Z,8.62
2019-04-28T05:16:49.752Z,8.69
2019-04-28T05:19:19.862Z,8.77
2019-04-28T05:21:49.856Z,8.87
2019-04-28T05:24:26.016Z,8.86
2019-04-28T05:26:56.146Z,8.88
2019-04-28T05:29:26.879Z,8.80
2019-04-28T05:31:59.833Z,8.88
2019-04-28T05:34:31.162Z,8.81
2019-04-28T05:37:00.724Z,8.81
2019-04-28T05:39:29.880Z,8.79
2019-04-28T05:41:58.450Z,8.87
2019-04-28T05:44:27.016Z,8.92
2019-04-28T05:46:59.568Z,8.83
2019-04-28T05:49:45.084Z,9.01
2019-04-28T05:52:31.836Z,9.08
2019-04-28T05:55:14.065Z,9.09
2019-04-28T05:57:53.001Z,8.97
2019-04-28T06:00:41.831Z,9.04
2019-04-28T06:03:14.679Z,9.04
2019-04-28T06:05:43.245Z,9.24
2019-04-28T06:08:30.321Z,9.34
2019-04-28T06:10:59.935Z,9.33
2019-04-28T06:13:30.293Z,9.25
2019-04-28T06:15:59.902Z,9.34
2019-04-28T06:18:28.659Z,9.38
2019-04-28T06:20:58.821Z,9.40
2019-04-28T06:23:27.649Z,9.58
2019-04-28T06:25:57.906Z,9.58
2019-04-28T06:28:26.771Z,9.63
2019-04-28T06:30:55.331Z,9.94
2019-04-28T06:33:24.087Z,10.07
2019-04-28T06:35:52.862Z,10.08
2019-04-28T06:38:21.473Z,10.10
2019-04-28T06:40:50.420Z,10.05
2019-04-28T06:43:19.030Z,10.07
2019-04-28T06:45:47.609Z,10.32
2019-04-28T06:48:16.321Z,10.25
2019-04-28T06:50:44.980Z,10.30
2019-04-28T06:53:13.855Z,10.04
2019-04-28T06:55:42.593Z,10.02
2019-04-28T06:58:11.242Z,10.24
2019-04-28T07:00:39.880Z,10.30
2019-04-28T07:03:17.016Z,10.25
2019-04-28T07:05:39.033Z,10.16
2019-04-28T07:08:08.671Z,9.96
2019-04-28T07:10:37.335Z,10.12
2019-04-28T07:13:06.061Z,10.26
2019-04-28T07:15:34.686Z,10.22
2019-04-28T07:18:03.305Z,10.22
2019-04-28T07:20:33.566Z,10.04
2019-04-28T07:23:02.115Z,10.11
2019-04-28T07:25:30.992Z,10.41
2019-04-28T07:28:00.033Z,10.44
2019-04-28T07:30:28.920Z,10.35
2019-04-28T07:33:00.387Z,10.28
2019-04-28T07:35:28.983Z,10.21
2019-04-28T07:37:57.697Z,9.96
2019-04-28T07:40:26.550Z,10.01
2019-04-28T07:42:57.312Z,10.30
2019-04-28T07:45:26.417Z,10.44
2019-04-28T07:47:56.188Z,10.59
2019-04-28T07:50:24.755Z,10.81
2019-04-28T07:53:06.420Z,11.00
2019-04-28T07:55:35.016Z,11.03
2019-04-28T07:58:03.624Z,11.10
2019-04-28T08:00:32.459Z,11.22
2019-04-28T08:03:02.133Z,11.43
2019-04-28T08:05:30.748Z,11.27
2019-04-28T08:07:59.368Z,11.43
2019-04-28T08:10:29.554Z,11.26
2019-04-28T08:13:00.951Z,10.55
2019-04-28T08:15:29.508Z,10.44
2019-04-28T08:17:58.407Z,10.14
2019-04-28T08:20:27.017Z,10.07
2019-04-28T08:22:55.986Z,10.22
2019-04-28T08:25:24.551Z,10.53
2019-04-28T08:27:53.160Z,10.66
2019-04-28T08:30:21.768Z,10.78
2019-04-28T08:32:57.905Z,10.64
2019-04-28T08:35:26.688Z,11.07
2019-04-28T08:37:55.918Z,11.40
2019-04-28T08:40:24.717Z,11.09
2019-04-28T08:42:53.285Z,11.45
2019-04-28T08:45:21.952Z,11.77
2019-04-28T08:47:50.668Z,11.88
2019-04-28T08:50:19.551Z,12.00
2019-04-28T08:52:48.127Z,12.00
2019-04-28T08:55:17.207Z,11.67
2019-04-28T08:57:45.787Z,11.41
2019-04-28T09:00:16.713Z,10.87
2019-04-28T09:02:45.430Z,10.52
2019-04-28T09:05:14.749Z,10.34
2019-04-28T09:07:43.358Z,10.23
2019-04-28T09:10:12.187Z,10.24
2019-04-28T09:12:40.832Z,10.43
2019-04-28T09:15:09.654Z,9.88
2019-04-28T09:17:38.344Z,10.22
2019-04-28T09:20:07.871Z,10.55
2019-04-28T09:22:36.484Z,10.69
2019-04-28T09:25:06.875Z,11.08
2019-04-28T09:27:35.542Z,11.17
2019-04-28T09:30:06.939Z,11.00
2019-04-28T09:32:35.555Z,10.71
2019-04-28T09:35:08.353Z,10.94
2019-04-28T09:37:36.967Z,10.96
2019-04-28T09:40:08.411Z,11.08
2019-04-28T09:42:38.601Z,10.76
2019-04-28T09:45:09.498Z,11.53
2019-04-28T09:47:38.065Z,11.78
2019-04-28T09:50:07.257Z,11.96
2019-04-28T09:52:36.106Z,11.89
2019-04-28T09:55:06.061Z,11.75
2019-04-28T09:57:34.685Z,12.17
2019-04-28T10:00:04.303Z,12.29
2019-04-28T10:02:32.851Z,12.05
2019-04-28T10:05:01.422Z,11.96
2019-04-28T10:07:30.436Z,11.80
2019-04-28T10:09:58.994Z,11.86
2019-04-28T10:12:29.968Z,11.93
2019-04-28T10:14:58.573Z,12.36
2019-04-28T10:17:28.688Z,11.84
2019-04-28T10:20:17.880Z,12.37
2019-04-28T10:22:47.050Z,12.59
2019-04-28T10:25:16.429Z,12.76
2019-04-28T10:27:45.043Z,13.20
2019-04-28T10:30:16.415Z,13.36
2019-04-28T10:32:44.975Z,13.37
2019-04-28T10:35:15.180Z,13.36
2019-04-28T10:37:45.563Z,13.53
2019-04-28T10:40:19.201Z,13.57
2019-04-28T10:42:47.755Z,13.78
2019-04-28T10:45:20.846Z,13.85
2019-04-28T10:47:49.568Z,13.52
2019-04-28T10:50:18.567Z,13.61
2019-04-28T10:52:47.448Z,13.61
2019-04-28T10:55:16.151Z,13.58
2019-04-28T10:57:44.749Z,14.06
2019-04-28T11:00:14.046Z,13.71
2019-04-28T11:02:43.385Z,14.07
2019-04-28T11:05:16.381Z,13.98
2019-04-28T11:07:45.089Z,14.17
2019-04-28T11:10:15.268Z,13.88
2019-04-28T11:12:43.888Z,13.86
2019-04-28T11:15:20.319Z,13.67
2019-04-28T11:17:49.240Z,13.66
2019-04-28T11:20:17.868Z,13.94
2019-04-28T11:22:46.488Z,14.29
2019-04-28T11:25:15.210Z,14.73
2019-04-28T11:27:43.750Z,14.15
2019-04-28T11:30:13.144Z,14.21
2019-04-28T11:32:43.337Z,14.27
2019-04-28T11:35:32.529Z,13.58
2019-04-28T11:38:01.141Z,13.97
2019-04-28T11:40:29.791Z,13.85
2019-04-28T11:42:58.579Z,13.69
2019-04-28T11:45:29.243Z,13.15
2019-04-28T11:47:59.511Z,13.27
2019-04-28T11:50:30.897Z,13.21
2019-04-28T11:52:59.707Z,13.38
2019-04-28T11:55:28.326Z,13.65
2019-04-28T11:57:56.883Z,13.56
2019-04-28T12:00:35.804Z,13.45
2019-04-28T12:03:04.642Z,13.56
2019-04-28T12:05:35.035Z,13.58
2019-04-28T12:08:03.730Z,13.53
2019-04-28T12:10:52.355Z,13.71
2019-04-28T12:28:17.613Z,12.78
2019-04-28T12:30:59.571Z,12.98
2019-04-28T12:39:44.092Z,12.50
2019-04-28T12:42:19.271Z,12.37
2019-04-28T12:44:47.915Z,12.85
2019-04-28T12:47:16.526Z,12.84
2019-04-28T12:49:49.755Z,13.01
2019-04-28T12:52:18.881Z,13.16
2019-04-28T12:54:47.603Z,12.99
2019-04-28T12:57:16.545Z,12.95
2019-04-28T12:59:49.447Z,13.23
2019-04-28T13:02:35.471Z,13.28
2019-04-28T13:05:10.341Z,13.75
2019-04-28T13:07:38.991Z,13.27
2019-04-28T13:10:07.882Z,13.23
2019-04-28T13:12:36.529Z,13.34
2019-04-28T13:15:06.667Z,13.27
2019-04-28T13:17:35.275Z,13.05
2019-04-28T13:20:04.406Z,13.15
2019-04-28T13:22:33.541Z,13.52
2019-04-28T13:25:02.382Z,13.61
2019-04-28T13:27:30.978Z,13.87
2019-04-28T13:29:59.585Z,13.83
2019-04-28T13:32:47.511Z,14.29
2019-04-28T13:35:16.885Z,14.44
2019-04-28T13:37:46.073Z,14.70
2019-04-28T13:40:34.580Z,14.81
2019-04-28T13:43:03.382Z,15.14
2019-04-28T13:45:32.339Z,15.08
2019-04-28T13:48:01.218Z,15.31
2019-04-28T13:50:31.628Z,15.52
2019-04-28T13:53:00.292Z,15.27
2019-04-28T13:55:30.590Z,15.56
2019-04-28T13:58:01.576Z,15.17
2019-04-28T14:00:40.546Z,15.46
2019-04-28T14:03:23.058Z,14.80
2019-04-28T14:05:55.980Z,14.93
2019-04-28T14:08:24.532Z,14.37
2019-04-28T14:10:53.098Z,14.81
2019-04-28T14:13:21.748Z,14.93
2019-04-28T14:15:50.725Z,15.07
2019-04-28T14:18:19.674Z,14.46
2019-04-28T14:20:48.487Z,14.65
2019-04-28T14:23:17.424Z,14.99
2019-04-28T14:25:46.408Z,14.98
2019-04-28T14:28:15.325Z,14.33
2019-04-28T14:30:43.935Z,14.84
2019-04-28T14:33:12.605Z,14.69
2019-04-28T14:35:41.278Z,14.63
2019-04-28T14:38:09.885Z,14.37
2019-04-28T14:40:38.436Z,14.05
2019-04-28T14:43:07.032Z,13.90
2019-04-28T14:45:35.997Z,13.81
2019-04-28T14:48:04.674Z,13.58
2019-04-28T14:50:33.276Z,13.57
2019-04-28T14:53:01.990Z,13.63
2019-04-28T14:55:30.752Z,13.83
2019-04-28T14:57:59.784Z,13.65
2019-04-28T15:00:39.083Z,13.60
2019-04-28T15:03:11.788Z,14.08
2019-04-28T15:05:42.157Z,13.98
2019-04-28T15:08:17.990Z,14.20
2019-04-28T15:11:00.306Z,14.16
2019-04-28T15:13:29.153Z,14.05
2019-04-28T15:15:57.889Z,14.13
2019-04-28T15:18:26.912Z,14.11
2019-04-28T15:20:55.739Z,14.16
2019-04-28T15:23:24.339Z,13.84
2019-04-28T15:25:52.951Z,14.05
2019-04-28T15:28:21.573Z,14.12
2019-04-28T15:30:50.292Z,14.05
2019-04-28T15:33:19.029Z,14.21
2019-04-28T15:35:47.624Z,14.44
2019-04-28T15:38:16.345Z,15.28
2019-04-28T15:40:45.057Z,15.75
2019-04-28T15:43:13.616Z,15.81
2019-04-28T15:45:42.496Z,15.54
2019-04-28T15:48:11.094Z,15.99
2019-04-28T15:50:39.636Z,16.24
2019-04-28T15:53:08.206Z,15.81
2019-04-28T15:55:38.468Z,16.04
2019-04-28T15:58:27.892Z,15.56
2019-04-28T16:00:56.448Z,15.27
2019-04-28T16:03:25.624Z,14.73
2019-04-28T16:05:54.331Z,14.89
2019-04-28T16:08:22.968Z,15.02
2019-04-28T16:10:51.588Z,15.15
2019-04-28T16:13:20.203Z,15.08
2019-04-28T16:15:48.814Z,14.97
2019-04-28T16:18:17.387Z,15.28
2019-04-28T16:20:46.138Z,15.03
2019-04-28T16:23:14.986Z,14.46
2019-04-28T16:25:43.627Z,14.45
2019-04-28T16:28:12.256Z,14.18
2019-04-28T16:30:40.778Z,14.53
2019-04-28T16:33:09.368Z,14.62
2019-04-28T16:35:37.985Z,14.43
2019-04-28T16:38:06.544Z,14.71
2019-04-28T16:40:35.447Z,14.50
2019-04-28T16:43:04.913Z,14.39
2019-04-28T16:45:33.556Z,14.20
2019-04-28T16:48:02.164Z,14.06
2019-04-28T16:50:31.228Z,14.11
2019-04-28T16:52:59.900Z,13.96
2019-04-28T16:55:30.556Z,13.99
2019-04-28T16:58:03.260Z,13.96
2019-04-28T17:00:48.298Z,13.80
2019-04-28T17:03:17.490Z,13.90
2019-04-28T17:05:46.112Z,13.69
2019-04-28T17:08:14.821Z,13.79
2019-04-28T17:10:43.637Z,13.76
2019-04-28T17:13:12.357Z,13.64
2019-04-28T17:15:40.976Z,13.30
2019-04-28T17:18:09.585Z,13.35
2019-04-28T17:20:38.209Z,13.33
2019-04-28T17:23:06.814Z,13.46
2019-04-28T17:25:35.559Z,13.35
2019-04-28T17:28:04.364Z,13.29
2019-04-28T17:30:33.091Z,13.18
2019-04-28T17:33:01.662Z,13.08
2019-04-28T17:35:30.540Z,13.11
2019-04-28T17:38:06.412Z,12.99
2019-04-28T17:40:30.839Z,12.82
2019-04-28T17:42:59.977Z,12.94
2019-04-28T17:45:28.534Z,12.91
2019-04-28T17:48:00.286Z,12.63
2019-04-28T17:50:29.445Z,12.60
2019-04-28T17:52:59.573Z,12.46
2019-04-28T17:55:30.863Z,12.55
2019-04-28T17:57:59.492Z,12.44
2019-04-28T18:00:47.773Z,12.47
2019-04-28T18:03:30.525Z,12.33
2019-04-28T18:06:17.884Z,12.28
2019-04-28T18:08:47.220Z,12.21
2019-04-28T18:11:16.330Z,12.18
2019-04-28T18:13:44.939Z,12.05
2019-04-28T18:16:30.551Z,12.00
2019-04-28T18:19:01.210Z,11.93
2019-04-28T18:21:30.228Z,11.93
2019-04-28T18:23:58.837Z,11.77
2019-04-28T18:26:30.447Z,11.53
2019-04-28T18:28:59.060Z,11.55
2019-04-28T18:31:29.307Z,11.64
2019-04-28T18:34:16.257Z,11.62
2019-04-28T18:36:46.514Z,11.57
2019-04-28T18:39:32.944Z,11.38
2019-04-28T18:42:03.226Z,11.19
2019-04-28T18:44:31.913Z,11.15
2019-04-28T18:47:00.520Z,11.24
2019-04-28T18:49:29.134Z,11.15
2019-04-28T18:51:57.743Z,10.98
2019-04-28T18:54:26.961Z,10.79
2019-04-28T18:56:57.846Z,10.73
2019-04-28T18:59:26.459Z,10.68
2019-04-28T19:01:59.477Z,10.65
2019-04-28T19:04:29.622Z,10.55
2019-04-28T19:07:05.288Z,10.50
2019-04-28T19:09:33.302Z,10.50
2019-04-28T19:12:03.568Z,10.58
2019-04-28T19:14:36.842Z,10.52
2019-04-28T19:17:09.937Z,10.51
2019-04-28T19:19:40.363Z,10.36
2019-04-28T19:22:08.973Z,10.28
2019-04-28T19:24:37.584Z,10.28
2019-04-28T19:27:06.398Z,10.27
2019-04-28T19:29:35.017Z,10.26
2019-04-28T19:32:03.700Z,10.23
2019-04-28T19:34:32.376Z,10.33
2019-04-28T19:37:01.085Z,10.29
2019-04-28T19:39:30.068Z,10.17
2019-04-28T19:41:58.631Z,10.13
2019-04-28T19:44:29.173Z,10.05
2019-04-28T19:46:57.944Z,10.13
2019-04-28T19:49:26.911Z,10.08
2019-04-28T19:51:55.830Z,10.00
2019-04-28T19:54:26.192Z,10.07
2019-04-28T19:57:05.462Z,10.07
2019-04-28T19:59:52.003Z,9.98
2019-04-28T20:02:20.731Z,9.97
2019-04-28T20:04:49.364Z,9.90
2019-04-28T20:07:17.987Z,9.85
2019-04-28T20:09:46.631Z,9.76
2019-04-28T20:12:15.289Z,9.84
2019-04-28T20:14:43.889Z,9.82
2019-04-28T20:17:12.959Z,9.98
2019-04-28T20:19:41.571Z,9.94
2019-04-28T20:22:10.202Z,9.91
2019-04-28T20:24:46.949Z,9.81
2019-04-28T20:27:09.132Z,9.84
2019-04-28T20:29:37.789Z,9.84
2019-04-28T20:32:06.438Z,9.80
2019-04-28T20:34:35.073Z,9.82
2019-04-28T20:37:08.108Z,9.77
2019-04-28T20:39:36.750Z,9.83
2019-04-28T20:42:23.262Z,9.98
2019-04-28T20:44:52.306Z,9.89
2019-04-28T20:47:20.923Z,9.77
2019-04-28T20:49:49.557Z,9.97
2019-04-28T20:52:18.208Z,9.92
2019-04-28T20:54:46.809Z,9.82
2019-04-28T20:57:15.428Z,9.83
2019-04-28T20:59:44.067Z,9.86
2019-04-28T21:02:13.025Z,9.82
2019-04-28T21:04:41.651Z,9.76
2019-04-28T21:07:10.269Z,9.72
2019-04-28T21:09:38.987Z,9.78
2019-04-28T21:12:08.027Z,9.74
2019-04-28T21:14:36.754Z,9.78
2019-04-28T21:17:05.475Z,9.72
2019-04-28T21:19:34.734Z,9.81
2019-04-28T21:22:03.373Z,9.80
2019-04-28T21:24:32.008Z,9.83
2019-04-28T21:27:00.669Z,9.88
2019-04-28T21:29:29.321Z,10.01
2019-04-28T21:31:59.457Z,10.00
2019-04-28T21:34:29.280Z,10.10
2019-04-28T21:36:58.148Z,10.05
2019-04-28T21:39:30.009Z,9.98
2019-04-28T21:42:00.019Z,10.10
2019-04-28T21:44:30.285Z,10.08
2019-04-28T21:47:01.160Z,10.18
2019-04-28T21:49:31.806Z,10.11
2019-04-28T21:52:00.418Z,10.18
2019-04-28T21:54:29.026Z,10.16
2019-04-28T21:57:00.609Z,10.14
2019-04-28T21:59:29.219Z,10.23
2019-04-28T22:01:57.865Z,10.20
2019-04-28T22:04:28.219Z,10.18
2019-04-28T22:07:00.229Z,10.11
2019-04-28T22:09:28.878Z,10.11
2019-04-28T22:12:00.583Z,10.26
2019-04-28T22:14:29.158Z,10.14
2019-04-28T22:16:57.718Z,10.14
2019-04-28T22:19:27.963Z,10.08
2019-04-28T22:21:56.586Z,10.16
2019-04-28T22:24:38.825Z,10.08
2019-04-28T22:27:09.072Z,10.04
2019-04-28T22:29:37.691Z,10.12
2019-04-28T22:32:06.305Z,10.13
2019-04-28T22:34:34.912Z,10.19
2019-04-28T22:37:03.535Z,10.24
2019-04-28T22:39:32.180Z,10.09
2019-04-28T22:42:00.905Z,10.21
2019-04-28T22:44:29.786Z,10.20
2019-04-28T22:46:58.714Z,10.16
2019-04-28T22:49:28.866Z,10.17
2019-04-28T22:52:00.149Z,10.25
2019-04-28T22:54:30.396Z,10.23
2019-04-28T22:57:00.655Z,10.26
2019-04-28T22:59:39.908Z,10.28
2019-04-28T23:02:13.128Z,10.28
2019-04-28T23:04:49.113Z,10.13
2019-04-28T23:07:18.101Z,10.19
2019-04-28T23:09:46.656Z,10.10
2019-04-28T23:12:15.244Z,10.19
2019-04-28T23:14:43.802Z,10.21
2019-04-28T23:17:13.995Z,10.10
2019-04-28T23:19:43.973Z,10.16
2019-04-28T23:22:23.745Z,10.14
2019-04-28T23:25:06.405Z,10.06
2019-04-28T23:27:34.970Z,10.07
2019-04-28T23:30:05.268Z,10.24
2019-04-28T23:35:37.103Z,10.23
2019-04-28T23:41:10.058Z,10.01
2019-04-28T23:43:38.976Z,10.16
2019-04-28T23:46:07.555Z,10.09
2019-04-28T23:48:36.829Z,10.09
2019-04-28T23:51:16.199Z,10.05
2019-04-28T23:53:58.143Z,9.97
2019-04-28T23:56:29.840Z,9.86
2019-04-28T23:58:58.434Z,9.92
